Pagrindinis puslapis
METAR-TAF:

METAR-TAF

Oro uostai :

Mandalajus, Mianmaras

platuma: 21-59N, ilguma: 096-06E, Aukštis: 74 m

Dabartinis oras

Ataskaita buvo paskelbta 17 minutes, ne 14:30 UTC
Vėjas 2 kt iš Vakarų/Šiaurės Vakarų
Temperatūra 23°C
Drėgmė 83%
Slėgis 1013 hPa
Matomumas: 6000 m
Mažai debesys ne aukštis 2000 ft

METAR: VYMD 211430Z 29002KT 6000 FEW020 23/20 Q1013 NOSIG

Laikas: 21:17 (14:47 UTC)

Prognozė

Ataskaita buvo paskelbta 3 valandos ir 47 minutes, ne 11:00 UTC
Prognozė galioja nuo 21 metu 12 UTC su 22 metu 12 UTC
Vėjas 4 kt iš Šiaurės/Šiaurės Vakarų
Matomumas: 6000 m
Išsisklaidę debesys ne aukštis 2000 ft
Laikinai
nuo 21 metu 12 UTC su 21 metu 18 UTC
Vėjas 5 kt iš Šiaurės/Šiaurės Rytų
Matomumas: 5000 m
Išsisklaidę debesys ne aukštis 2000 ft
migla

TAF: VYMD 211100Z 2112/2212 34004KT 6000 SCT020 TEMPO 2112/2118 02005KT 5000 HZ SCT020

Orai ataskaitas ir orų prognozės (METAR, TAF).

turimą stotys yra geltonos ir raudonos taškus žemėlapyje.

Perkelti pele per norėdami pamatyti stoties vardą.

Tada spustelėkite, norėdami matyti oro stebėjimo ir prognozės.

Norėdami pakeisti žemėlapį: spustelėkite ant žalios mygtukų su juodo kryžiaus žemyn,; žalią mygtuką su brūkšneliu, jei norite nutolinti; arba žalių rodyklių gretimoms žemėlapius.


METAR-TAF: